sensor_id;sensor_type;location;lat;lon;timestamp;temperature;humidity
7218;DHT22;3650;53.580;10.094;2023-08-08T00:00:48;15.70;82.40
7218;DHT22;3650;53.580;10.094;2023-08-08T00:03:15;15.70;83.10
7218;DHT22;3650;53.580;10.094;2023-08-08T00:05:42;15.70;83.90
7218;DHT22;3650;53.580;10.094;2023-08-08T00:08:09;15.70;85.80
7218;DHT22;3650;53.580;10.094;2023-08-08T00:10:37;15.70;84.70
7218;DHT22;3650;53.580;10.094;2023-08-08T00:13:04;15.70;84.80
7218;DHT22;3650;53.580;10.094;2023-08-08T00:15:31;15.70;84.80
7218;DHT22;3650;53.580;10.094;2023-08-08T00:17:58;15.70;85.80
7218;DHT22;3650;53.580;10.094;2023-08-08T00:20:24;15.70;86.10
7218;DHT22;3650;53.580;10.094;2023-08-08T00:22:51;15.70;86.10
7218;DHT22;3650;53.580;10.094;2023-08-08T00:25:18;15.70;87.00
7218;DHT22;3650;53.580;10.094;2023-08-08T00:27:46;15.70;87.20
7218;DHT22;3650;53.580;10.094;2023-08-08T00:30:13;15.70;88.00
7218;DHT22;3650;53.580;10.094;2023-08-08T00:32:40;15.60;88.00
7218;DHT22;3650;53.580;10.094;2023-08-08T00:35:08;15.70;89.10
7218;DHT22;3650;53.580;10.094;2023-08-08T00:37:35;15.70;89.20
7218;DHT22;3650;53.580;10.094;2023-08-08T00:40:02;15.70;89.80
7218;DHT22;3650;53.580;10.094;2023-08-08T00:42:29;15.70;90.00
7218;DHT22;3650;53.580;10.094;2023-08-08T00:44:57;15.70;90.20
7218;DHT22;3650;53.580;10.094;2023-08-08T00:47:29;15.70;90.30
7218;DHT22;3650;53.580;10.094;2023-08-08T00:49:56;15.70;90.20
7218;DHT22;3650;53.580;10.094;2023-08-08T00:52:23;15.70;90.30
7218;DHT22;3650;53.580;10.094;2023-08-08T00:54:51;15.70;90.40
7218;DHT22;3650;53.580;10.094;2023-08-08T00:57:18;15.70;90.30
7218;DHT22;3650;53.580;10.094;2023-08-08T00:59:45;15.70;90.50
7218;DHT22;3650;53.580;10.094;2023-08-08T01:02:13;15.70;90.40
7218;DHT22;3650;53.580;10.094;2023-08-08T01:04:40;15.70;90.40
7218;DHT22;3650;53.580;10.094;2023-08-08T01:07:15;15.70;90.30
7218;DHT22;3650;53.580;10.094;2023-08-08T01:09:48;15.70;90.20
7218;DHT22;3650;53.580;10.094;2023-08-08T01:12:17;15.70;90.10
7218;DHT22;3650;53.580;10.094;2023-08-08T01:14:44;15.70;90.30
7218;DHT22;3650;53.580;10.094;2023-08-08T01:17:13;15.70;90.40
7218;DHT22;3650;53.580;10.094;2023-08-08T01:19:40;15.70;90.50
7218;DHT22;3650;53.580;10.094;2023-08-08T01:22:14;15.70;90.60
7218;DHT22;3650;53.580;10.094;2023-08-08T01:24:44;15.70;90.60
7218;DHT22;3650;53.580;10.094;2023-08-08T01:27:11;15.70;90.80
7218;DHT22;3650;53.580;10.094;2023-08-08T01:29:38;15.70;90.80
7218;DHT22;3650;53.580;10.094;2023-08-08T01:32:06;15.70;91.00
7218;DHT22;3650;53.580;10.094;2023-08-08T01:34:34;15.70;91.00
7218;DHT22;3650;53.580;10.094;2023-08-08T01:37:06;15.70;91.00
7218;DHT22;3650;53.580;10.094;2023-08-08T01:39:36;15.70;91.00
7218;DHT22;3650;53.580;10.094;2023-08-08T01:42:06;15.70;91.10
7218;DHT22;3650;53.580;10.094;2023-08-08T01:44:33;15.70;91.10
7218;DHT22;3650;53.580;10.094;2023-08-08T01:47:00;15.70;91.10
7218;DHT22;3650;53.580;10.094;2023-08-08T01:49:27;15.70;91.10
7218;DHT22;3650;53.580;10.094;2023-08-08T01:51:54;15.70;91.20
7218;DHT22;3650;53.580;10.094;2023-08-08T01:54:21;15.70;91.20
7218;DHT22;3650;53.580;10.094;2023-08-08T01:56:48;15.70;91.30
7218;DHT22;3650;53.580;10.094;2023-08-08T01:59:16;15.70;91.30
7218;DHT22;3650;53.580;10.094;2023-08-08T02:01:43;15.70;91.10
7218;DHT22;3650;53.580;10.094;2023-08-08T02:04:09;15.70;91.10
7218;DHT22;3650;53.580;10.094;2023-08-08T02:06:36;15.70;91.00
7218;DHT22;3650;53.580;10.094;2023-08-08T02:09:03;15.70;90.90
7218;DHT22;3650;53.580;10.094;2023-08-08T02:11:30;15.70;90.90
7218;DHT22;3650;53.580;10.094;2023-08-08T02:13:57;15.70;90.80
7218;DHT22;3650;53.580;10.094;2023-08-08T02:16:25;15.70;90.50
7218;DHT22;3650;53.580;10.094;2023-08-08T02:18:52;15.70;90.50
7218;DHT22;3650;53.580;10.094;2023-08-08T02:21:18;15.70;90.30
7218;DHT22;3650;53.580;10.094;2023-08-08T02:23:45;15.70;90.50
7218;DHT22;3650;53.580;10.094;2023-08-08T02:26:12;15.70;90.20
7218;DHT22;3650;53.580;10.094;2023-08-08T02:28:39;15.70;89.80
7218;DHT22;3650;53.580;10.094;2023-08-08T02:31:06;15.60;89.40
7218;DHT22;3650;53.580;10.094;2023-08-08T02:33:34;15.60;89.10
7218;DHT22;3650;53.580;10.094;2023-08-08T02:36:01;15.60;89.10
7218;DHT22;3650;53.580;10.094;2023-08-08T02:38:28;15.60;89.10
7218;DHT22;3650;53.580;10.094;2023-08-08T02:40:55;15.60;89.10
7218;DHT22;3650;53.580;10.094;2023-08-08T02:43:22;15.60;89.10
7218;DHT22;3650;53.580;10.094;2023-08-08T02:45:48;15.60;89.10
7218;DHT22;3650;53.580;10.094;2023-08-08T02:48:15;15.60;89.80
7218;DHT22;3650;53.580;10.094;2023-08-08T02:50:43;15.60;90.00
7218;DHT22;3650;53.580;10.094;2023-08-08T02:53:10;15.60;90.10
7218;DHT22;3650;53.580;10.094;2023-08-08T02:55:37;15.60;90.10
7218;DHT22;3650;53.580;10.094;2023-08-08T02:58:04;15.60;90.10
7218;DHT22;3650;53.580;10.094;2023-08-08T03:00:31;15.60;90.10
7218;DHT22;3650;53.580;10.094;2023-08-08T03:02:58;15.60;90.20
7218;DHT22;3650;53.580;10.094;2023-08-08T03:05:24;15.60;90.20
7218;DHT22;3650;53.580;10.094;2023-08-08T03:07:52;15.60;90.20
7218;DHT22;3650;53.580;10.094;2023-08-08T03:10:19;15.60;90.20
7218;DHT22;3650;53.580;10.094;2023-08-08T03:12:46;15.60;90.30
7218;DHT22;3650;53.580;10.094;2023-08-08T03:15:13;15.60;90.10
7218;DHT22;3650;53.580;10.094;2023-08-08T03:17:40;15.60;90.00
7218;DHT22;3650;53.580;10.094;2023-08-08T03:20:08;15.60;90.10
7218;DHT22;3650;53.580;10.094;2023-08-08T03:22:36;15.60;90.10
7218;DHT22;3650;53.580;10.094;2023-08-08T03:25:05;15.60;90.20
7218;DHT22;3650;53.580;10.094;2023-08-08T03:27:32;15.60;90.30
7218;DHT22;3650;53.580;10.094;2023-08-08T03:29:59;15.60;90.40
7218;DHT22;3650;53.580;10.094;2023-08-08T03:32:26;15.60;90.30
7218;DHT22;3650;53.580;10.094;2023-08-08T03:34:53;15.60;90.30
7218;DHT22;3650;53.580;10.094;2023-08-08T03:37:20;15.60;90.40
7218;DHT22;3650;53.580;10.094;2023-08-08T03:39:47;15.60;90.20
7218;DHT22;3650;53.580;10.094;2023-08-08T03:42:15;15.60;90.30
7218;DHT22;3650;53.580;10.094;2023-08-08T03:44:41;15.60;90.20
7218;DHT22;3650;53.580;10.094;2023-08-08T03:47:10;15.60;90.20
7218;DHT22;3650;53.580;10.094;2023-08-08T03:49:37;15.60;90.20
7218;DHT22;3650;53.580;10.094;2023-08-08T03:52:04;15.60;90.40
7218;DHT22;3650;53.580;10.094;2023-08-08T03:54:31;15.60;90.50
7218;DHT22;3650;53.580;10.094;2023-08-08T03:56:58;15.60;90.80
7218;DHT22;3650;53.580;10.094;2023-08-08T03:59:26;15.60;90.80
7218;DHT22;3650;53.580;10.094;2023-08-08T04:01:53;15.60;90.80
7218;DHT22;3650;53.580;10.094;2023-08-08T04:04:19;15.60;90.80
7218;DHT22;3650;53.580;10.094;2023-08-08T04:06:46;15.60;90.90
7218;DHT22;3650;53.580;10.094;2023-08-08T04:09:13;15.60;91.00
7218;DHT22;3650;53.580;10.094;2023-08-08T04:11:40;15.60;91.00
7218;DHT22;3650;53.580;10.094;2023-08-08T04:14:07;15.60;90.90
7218;DHT22;3650;53.580;10.094;2023-08-08T04:16:35;15.60;90.80
7218;DHT22;3650;53.580;10.094;2023-08-08T04:19:02;15.60;90.60
7218;DHT22;3650;53.580;10.094;2023-08-08T04:21:29;15.60;90.60
7218;DHT22;3650;53.580;10.094;2023-08-08T04:23:58;15.60;90.60
7218;DHT22;3650;53.580;10.094;2023-08-08T04:26:25;15.60;90.70
7218;DHT22;3650;53.580;10.094;2023-08-08T04:28:51;15.60;90.70
7218;DHT22;3650;53.580;10.094;2023-08-08T04:31:18;15.60;90.60
7218;DHT22;3650;53.580;10.094;2023-08-08T04:33:47;15.60;90.60
7218;DHT22;3650;53.580;10.094;2023-08-08T04:36:13;15.60;90.60
7218;DHT22;3650;53.580;10.094;2023-08-08T04:38:40;15.60;90.60
7218;DHT22;3650;53.580;10.094;2023-08-08T04:41:07;15.60;90.50
7218;DHT22;3650;53.580;10.094;2023-08-08T04:43:34;15.60;90.40
7218;DHT22;3650;53.580;10.094;2023-08-08T04:46:01;15.60;90.30
7218;DHT22;3650;53.580;10.094;2023-08-08T04:48:28;15.70;90.40
7218;DHT22;3650;53.580;10.094;2023-08-08T04:50:56;15.60;90.30
7218;DHT22;3650;53.580;10.094;2023-08-08T04:53:23;15.70;90.10
7218;DHT22;3650;53.580;10.094;2023-08-08T04:55:50;15.70;90.00
7218;DHT22;3650;53.580;10.094;2023-08-08T04:58:16;15.70;89.80
7218;DHT22;3650;53.580;10.094;2023-08-08T05:00:43;15.70;89.20
7218;DHT22;3650;53.580;10.094;2023-08-08T05:03:10;15.70;89.20
7218;DHT22;3650;53.580;10.094;2023-08-08T05:05:37;15.70;89.90
7218;DHT22;3650;53.580;10.094;2023-08-08T05:08:05;15.70;89.20
7218;DHT22;3650;53.580;10.094;2023-08-08T05:10:32;15.80;89.30
7218;DHT22;3650;53.580;10.094;2023-08-08T05:12:59;15.80;89.30
7218;DHT22;3650;53.580;10.094;2023-08-08T05:15:26;15.80;88.50
7218;DHT22;3650;53.580;10.094;2023-08-08T05:17:53;15.80;88.10
7218;DHT22;3650;53.580;10.094;2023-08-08T05:20:20;15.80;88.00
7218;DHT22;3650;53.580;10.094;2023-08-08T05:22:47;15.80;88.10
7218;DHT22;3650;53.580;10.094;2023-08-08T05:25:16;15.80;87.60
7218;DHT22;3650;53.580;10.094;2023-08-08T05:27:43;15.80;87.60
7218;DHT22;3650;53.580;10.094;2023-08-08T05:30:10;15.80;87.90
7218;DHT22;3650;53.580;10.094;2023-08-08T05:32:37;15.80;88.60
7218;DHT22;3650;53.580;10.094;2023-08-08T05:35:05;15.90;88.80
7218;DHT22;3650;53.580;10.094;2023-08-08T05:37:32;15.90;88.90
7218;DHT22;3650;53.580;10.094;2023-08-08T05:39:59;15.90;88.60
7218;DHT22;3650;53.580;10.094;2023-08-08T05:42:27;15.90;88.60
7218;DHT22;3650;53.580;10.094;2023-08-08T05:44:54;15.90;87.80
7218;DHT22;3650;53.580;10.094;2023-08-08T05:47:21;15.90;88.10
7218;DHT22;3650;53.580;10.094;2023-08-08T05:49:48;16.00;87.70
7218;DHT22;3650;53.580;10.094;2023-08-08T05:52:15;16.00;86.40
7218;DHT22;3650;53.580;10.094;2023-08-08T05:54:41;16.00;86.00
7218;DHT22;3650;53.580;10.094;2023-08-08T05:57:08;16.10;86.00
7218;DHT22;3650;53.580;10.094;2023-08-08T05:59:36;16.10;86.20
7218;DHT22;3650;53.580;10.094;2023-08-08T06:02:03;16.10;85.90
7218;DHT22;3650;53.580;10.094;2023-08-08T06:04:30;16.10;85.30
7218;DHT22;3650;53.580;10.094;2023-08-08T06:06:57;16.10;85.30
7218;DHT22;3650;53.580;10.094;2023-08-08T06:09:25;16.10;85.50
7218;DHT22;3650;53.580;10.094;2023-08-08T06:11:52;16.10;85.90
7218;DHT22;3650;53.580;10.094;2023-08-08T06:14:18;16.10;86.00
7218;DHT22;3650;53.580;10.094;2023-08-08T06:16:46;16.20;86.00
7218;DHT22;3650;53.580;10.094;2023-08-08T06:19:13;16.20;86.30
7218;DHT22;3650;53.580;10.094;2023-08-08T06:21:41;16.20;86.30
7218;DHT22;3650;53.580;10.094;2023-08-08T06:24:08;16.20;86.60
7218;DHT22;3650;53.580;10.094;2023-08-08T06:26:34;16.20;87.10
7218;DHT22;3650;53.580;10.094;2023-08-08T06:29:01;16.20;87.00
7218;DHT22;3650;53.580;10.094;2023-08-08T06:31:29;16.30;86.20
7218;DHT22;3650;53.580;10.094;2023-08-08T06:33:57;16.30;86.00
7218;DHT22;3650;53.580;10.094;2023-08-08T06:36:24;16.30;86.30
7218;DHT22;3650;53.580;10.094;2023-08-08T06:38:51;16.30;86.60
7218;DHT22;3650;53.580;10.094;2023-08-08T06:41:17;16.30;87.20
7218;DHT22;3650;53.580;10.094;2023-08-08T06:43:44;16.30;86.40
7218;DHT22;3650;53.580;10.094;2023-08-08T06:46:11;16.30;86.50
7218;DHT22;3650;53.580;10.094;2023-08-08T06:48:38;16.30;86.50
7218;DHT22;3650;53.580;10.094;2023-08-08T06:51:06;16.40;85.90
7218;DHT22;3650;53.580;10.094;2023-08-08T06:53:32;16.30;85.50
7218;DHT22;3650;53.580;10.094;2023-08-08T06:55:59;16.40;85.70
7218;DHT22;3650;53.580;10.094;2023-08-08T06:58:26;16.40;85.50
7218;DHT22;3650;53.580;10.094;2023-08-08T07:00:53;16.40;85.80
7218;DHT22;3650;53.580;10.094;2023-08-08T07:03:19;16.40;86.30
7218;DHT22;3650;53.580;10.094;2023-08-08T07:05:46;16.40;86.00
7218;DHT22;3650;53.580;10.094;2023-08-08T07:08:18;16.50;85.80
7218;DHT22;3650;53.580;10.094;2023-08-08T07:10:45;16.50;84.80
7218;DHT22;3650;53.580;10.094;2023-08-08T07:13:12;16.50;84.40
7218;DHT22;3650;53.580;10.094;2023-08-08T07:15:40;16.60;84.80
7218;DHT22;3650;53.580;10.094;2023-08-08T07:18:08;16.60;84.70
7218;DHT22;3650;53.580;10.094;2023-08-08T07:20:34;16.70;83.70
7218;DHT22;3650;53.580;10.094;2023-08-08T07:23:01;16.60;83.50
7218;DHT22;3650;53.580;10.094;2023-08-08T07:25:29;16.70;82.00
7218;DHT22;3650;53.580;10.094;2023-08-08T07:27:56;16.70;82.60
7218;DHT22;3650;53.580;10.094;2023-08-08T07:30:23;16.70;82.10
7218;DHT22;3650;53.580;10.094;2023-08-08T07:32:50;16.80;81.00
7218;DHT22;3650;53.580;10.094;2023-08-08T07:35:17;16.80;80.20
7218;DHT22;3650;53.580;10.094;2023-08-08T07:37:44;16.80;79.30
7218;DHT22;3650;53.580;10.094;2023-08-08T07:40:14;16.80;79.20
7218;DHT22;3650;53.580;10.094;2023-08-08T07:42:44;16.80;79.30
7218;DHT22;3650;53.580;10.094;2023-08-08T07:45:11;16.80;79.20
7218;DHT22;3650;53.580;10.094;2023-08-08T07:47:38;16.90;79.40
7218;DHT22;3650;53.580;10.094;2023-08-08T07:50:06;16.90;79.50
7218;DHT22;3650;53.580;10.094;2023-08-08T07:52:33;16.90;79.40
7218;DHT22;3650;53.580;10.094;2023-08-08T07:55:00;17.00;79.50
7218;DHT22;3650;53.580;10.094;2023-08-08T07:57:27;16.90;79.40
7218;DHT22;3650;53.580;10.094;2023-08-08T07:59:57;17.00;79.60
7218;DHT22;3650;53.580;10.094;2023-08-08T08:02:24;17.10;79.80
7218;DHT22;3650;53.580;10.094;2023-08-08T08:04:50;17.10;79.50
7218;DHT22;3650;53.580;10.094;2023-08-08T08:07:17;17.10;79.50
7218;DHT22;3650;53.580;10.094;2023-08-08T08:09:44;17.10;79.50
7218;DHT22;3650;53.580;10.094;2023-08-08T08:12:12;17.20;79.60
7218;DHT22;3650;53.580;10.094;2023-08-08T08:14:39;17.10;79.50
7218;DHT22;3650;53.580;10.094;2023-08-08T08:17:07;17.20;79.60
7218;DHT22;3650;53.580;10.094;2023-08-08T08:19:34;17.20;79.60
7218;DHT22;3650;53.580;10.094;2023-08-08T08:22:01;17.30;79.70
7218;DHT22;3650;53.580;10.094;2023-08-08T08:24:28;17.30;79.90
7218;DHT22;3650;53.580;10.094;2023-08-08T08:26:55;17.30;79.00
7218;DHT22;3650;53.580;10.094;2023-08-08T08:29:22;17.30;80.80
7218;DHT22;3650;53.580;10.094;2023-08-08T08:31:49;17.30;79.70
7218;DHT22;3650;53.580;10.094;2023-08-08T08:34:17;17.30;79.90
7218;DHT22;3650;53.580;10.094;2023-08-08T08:36:43;17.30;80.40
7218;DHT22;3650;53.580;10.094;2023-08-08T08:39:10;17.30;79.20
7218;DHT22;3650;53.580;10.094;2023-08-08T08:41:37;17.30;78.70
7218;DHT22;3650;53.580;10.094;2023-08-08T08:44:04;17.30;78.70
7218;DHT22;3650;53.580;10.094;2023-08-08T08:46:32;17.30;77.00
7218;DHT22;3650;53.580;10.094;2023-08-08T08:49:03;17.30;76.20
7218;DHT22;3650;53.580;10.094;2023-08-08T08:51:35;17.30;76.00
7218;DHT22;3650;53.580;10.094;2023-08-08T08:54:03;17.30;75.50
7218;DHT22;3650;53.580;10.094;2023-08-08T08:56:30;17.30;71.90
7218;DHT22;3650;53.580;10.094;2023-08-08T08:58:58;17.20;71.30
7218;DHT22;3650;53.580;10.094;2023-08-08T09:01:26;17.20;71.70
7218;DHT22;3650;53.580;10.094;2023-08-08T09:03:53;17.20;72.60
7218;DHT22;3650;53.580;10.094;2023-08-08T09:06:19;17.20;73.50
7218;DHT22;3650;53.580;10.094;2023-08-08T09:08:48;17.20;72.10
7218;DHT22;3650;53.580;10.094;2023-08-08T09:11:15;17.20;72.10
7218;DHT22;3650;53.580;10.094;2023-08-08T09:13:42;17.30;71.90
7218;DHT22;3650;53.580;10.094;2023-08-08T09:16:09;17.20;72.30
7218;DHT22;3650;53.580;10.094;2023-08-08T09:18:37;17.20;71.90
7218;DHT22;3650;53.580;10.094;2023-08-08T09:21:04;17.20;70.20
7218;DHT22;3650;53.580;10.094;2023-08-08T09:23:31;17.20;69.30
7218;DHT22;3650;53.580;10.094;2023-08-08T09:26:00;17.20;69.10
7218;DHT22;3650;53.580;10.094;2023-08-08T09:28:27;17.20;69.80
7218;DHT22;3650;53.580;10.094;2023-08-08T09:30:54;17.20;70.20
7218;DHT22;3650;53.580;10.094;2023-08-08T09:33:21;17.20;70.30
7218;DHT22;3650;53.580;10.094;2023-08-08T09:35:48;17.30;70.60
7218;DHT22;3650;53.580;10.094;2023-08-08T09:38:15;17.30;70.30
7218;DHT22;3650;53.580;10.094;2023-08-08T09:40:42;17.30;70.00
7218;DHT22;3650;53.580;10.094;2023-08-08T09:43:11;17.30;70.00
7218;DHT22;3650;53.580;10.094;2023-08-08T09:45:39;17.30;70.80
7218;DHT22;3650;53.580;10.094;2023-08-08T09:48:07;17.30;69.70
7218;DHT22;3650;53.580;10.094;2023-08-08T09:50:34;17.30;69.80
7218;DHT22;3650;53.580;10.094;2023-08-08T09:53:02;17.30;69.90
7218;DHT22;3650;53.580;10.094;2023-08-08T09:55:29;17.30;69.30
7218;DHT22;3650;53.580;10.094;2023-08-08T09:57:57;17.40;71.10
7218;DHT22;3650;53.580;10.094;2023-08-08T10:00:26;17.40;73.70
7218;DHT22;3650;53.580;10.094;2023-08-08T10:02:56;17.40;73.80
7218;DHT22;3650;53.580;10.094;2023-08-08T10:05:26;17.40;74.50
7218;DHT22;3650;53.580;10.094;2023-08-08T10:07:53;17.30;76.10
7218;DHT22;3650;53.580;10.094;2023-08-08T10:10:20;17.30;76.10
7218;DHT22;3650;53.580;10.094;2023-08-08T10:12:49;17.20;76.60
7218;DHT22;3650;53.580;10.094;2023-08-08T10:15:16;17.20;78.60
7218;DHT22;3650;53.580;10.094;2023-08-08T10:17:44;17.20;81.00
7218;DHT22;3650;53.580;10.094;2023-08-08T10:20:11;17.20;82.40
7218;DHT22;3650;53.580;10.094;2023-08-08T10:22:42;17.10;84.30
7218;DHT22;3650;53.580;10.094;2023-08-08T10:25:17;17.10;85.00
7218;DHT22;3650;53.580;10.094;2023-08-08T10:27:45;17.10;86.00
7218;DHT22;3650;53.580;10.094;2023-08-08T10:30:12;17.10;86.50
7218;DHT22;3650;53.580;10.094;2023-08-08T10:32:40;17.10;87.30
7218;DHT22;3650;53.580;10.094;2023-08-08T10:35:10;17.10;87.50
7218;DHT22;3650;53.580;10.094;2023-08-08T10:37:38;17.10;86.00
7218;DHT22;3650;53.580;10.094;2023-08-08T10:40:06;17.00;85.50
7218;DHT22;3650;53.580;10.094;2023-08-08T10:42:44;17.00;86.90
7218;DHT22;3650;53.580;10.094;2023-08-08T10:45:13;17.00;86.50
7218;DHT22;3650;53.580;10.094;2023-08-08T10:47:41;17.00;87.10
7218;DHT22;3650;53.580;10.094;2023-08-08T10:50:13;16.90;87.00
7218;DHT22;3650;53.580;10.094;2023-08-08T10:52:52;16.90;87.50
7218;DHT22;3650;53.580;10.094;2023-08-08T10:55:20;16.90;89.50
7218;DHT22;3650;53.580;10.094;2023-08-08T10:57:54;16.90;89.10
7218;DHT22;3650;53.580;10.094;2023-08-08T11:00:24;16.90;89.60
7218;DHT22;3650;53.580;10.094;2023-08-08T11:02:53;16.90;90.00
7218;DHT22;3650;53.580;10.094;2023-08-08T11:05:22;16.80;90.00
7218;DHT22;3650;53.580;10.094;2023-08-08T11:07:49;16.80;88.80
7218;DHT22;3650;53.580;10.094;2023-08-08T11:10:16;16.80;86.50
7218;DHT22;3650;53.580;10.094;2023-08-08T11:12:53;16.70;86.30
7218;DHT22;3650;53.580;10.094;2023-08-08T11:15:20;16.70;87.70
7218;DHT22;3650;53.580;10.094;2023-08-08T11:17:47;16.70;88.90
7218;DHT22;3650;53.580;10.094;2023-08-08T11:20:14;16.70;89.40
7218;DHT22;3650;53.580;10.094;2023-08-08T11:22:42;16.70;90.00
7218;DHT22;3650;53.580;10.094;2023-08-08T11:25:09;16.70;90.00
7218;DHT22;3650;53.580;10.094;2023-08-08T11:27:36;16.70;90.10
7218;DHT22;3650;53.580;10.094;2023-08-08T11:30:04;16.70;90.00
7218;DHT22;3650;53.580;10.094;2023-08-08T11:32:33;16.70;90.00
7218;DHT22;3650;53.580;10.094;2023-08-08T11:35:00;16.70;90.00
7218;DHT22;3650;53.580;10.094;2023-08-08T11:37:28;16.70;89.40
7218;DHT22;3650;53.580;10.094;2023-08-08T11:39:57;16.70;88.00
7218;DHT22;3650;53.580;10.094;2023-08-08T11:42:24;16.70;88.10
7218;DHT22;3650;53.580;10.094;2023-08-08T11:44:51;16.70;88.80
7218;DHT22;3650;53.580;10.094;2023-08-08T11:47:24;16.60;88.70
7218;DHT22;3650;53.580;10.094;2023-08-08T11:49:51;16.60;90.00
7218;DHT22;3650;53.580;10.094;2023-08-08T11:52:18;16.60;90.00
7218;DHT22;3650;53.580;10.094;2023-08-08T11:54:50;16.60;90.00
7218;DHT22;3650;53.580;10.094;2023-08-08T11:57:19;16.60;90.10
7218;DHT22;3650;53.580;10.094;2023-08-08T11:59:48;16.60;90.20
7218;DHT22;3650;53.580;10.094;2023-08-08T12:02:15;16.60;90.00
7218;DHT22;3650;53.580;10.094;2023-08-08T12:04:44;16.60;90.00
7218;DHT22;3650;53.580;10.094;2023-08-08T12:07:11;16.60;90.00
7218;DHT22;3650;53.580;10.094;2023-08-08T12:09:38;16.60;90.10
7218;DHT22;3650;53.580;10.094;2023-08-08T12:12:08;16.60;90.30
7218;DHT22;3650;53.580;10.094;2023-08-08T12:14:38;16.60;90.60
7218;DHT22;3650;53.580;10.094;2023-08-08T12:17:05;16.70;91.10
7218;DHT22;3650;53.580;10.094;2023-08-08T12:19:32;16.80;91.40
7218;DHT22;3650;53.580;10.094;2023-08-08T12:21:59;16.80;91.70
7218;DHT22;3650;53.580;10.094;2023-08-08T12:24:26;16.70;91.30
7218;DHT22;3650;53.580;10.094;2023-08-08T12:26:52;16.90;91.30
7218;DHT22;3650;53.580;10.094;2023-08-08T12:29:19;16.90;91.60
7218;DHT22;3650;53.580;10.094;2023-08-08T12:31:47;16.90;91.40
7218;DHT22;3650;53.580;10.094;2023-08-08T12:34:14;17.00;90.10
7218;DHT22;3650;53.580;10.094;2023-08-08T12:36:41;17.00;90.10
7218;DHT22;3650;53.580;10.094;2023-08-08T12:39:08;17.10;89.90
7218;DHT22;3650;53.580;10.094;2023-08-08T12:41:36;17.10;90.10
7218;DHT22;3650;53.580;10.094;2023-08-08T12:44:03;17.20;90.50
7218;DHT22;3650;53.580;10.094;2023-08-08T12:46:30;17.20;89.70
7218;DHT22;3650;53.580;10.094;2023-08-08T12:48:58;17.30;87.60
7218;DHT22;3650;53.580;10.094;2023-08-08T12:51:24;17.40;89.30
7218;DHT22;3650;53.580;10.094;2023-08-08T12:53:51;17.50;89.20
7218;DHT22;3650;53.580;10.094;2023-08-08T12:56:18;17.50;88.40
7218;DHT22;3650;53.580;10.094;2023-08-08T12:58:45;17.70;88.40
7218;DHT22;3650;53.580;10.094;2023-08-08T13:01:12;17.60;84.10
7218;DHT22;3650;53.580;10.094;2023-08-08T13:03:39;17.70;81.20
7218;DHT22;3650;53.580;10.094;2023-08-08T13:06:07;17.80;80.80
7218;DHT22;3650;53.580;10.094;2023-08-08T13:08:34;17.80;77.80
7218;DHT22;3650;53.580;10.094;2023-08-08T13:11:01;17.80;79.20
7218;DHT22;3650;53.580;10.094;2023-08-08T13:13:28;17.80;81.00
7218;DHT22;3650;53.580;10.094;2023-08-08T13:15:54;17.80;80.60
7218;DHT22;3650;53.580;10.094;2023-08-08T13:18:22;17.70;77.60
7218;DHT22;3650;53.580;10.094;2023-08-08T13:20:48;17.60;75.10
7218;DHT22;3650;53.580;10.094;2023-08-08T13:23:17;17.60;78.20
7218;DHT22;3650;53.580;10.094;2023-08-08T13:25:44;17.50;78.10
7218;DHT22;3650;53.580;10.094;2023-08-08T13:28:11;17.40;78.40
7218;DHT22;3650;53.580;10.094;2023-08-08T13:30:40;17.40;79.80
7218;DHT22;3650;53.580;10.094;2023-08-08T13:33:08;17.40;81.10
7218;DHT22;3650;53.580;10.094;2023-08-08T13:35:35;17.40;84.50
7218;DHT22;3650;53.580;10.094;2023-08-08T13:38:02;17.40;83.10
7218;DHT22;3650;53.580;10.094;2023-08-08T13:40:31;17.40;83.10
7218;DHT22;3650;53.580;10.094;2023-08-08T13:42:57;17.50;83.10
7218;DHT22;3650;53.580;10.094;2023-08-08T13:45:24;17.50;83.40
7218;DHT22;3650;53.580;10.094;2023-08-08T13:47:51;17.50;81.40
7218;DHT22;3650;53.580;10.094;2023-08-08T13:50:21;17.60;81.50
7218;DHT22;3650;53.580;10.094;2023-08-08T13:52:48;17.60;79.40
7218;DHT22;3650;53.580;10.094;2023-08-08T13:55:15;17.60;79.10
7218;DHT22;3650;53.580;10.094;2023-08-08T13:57:43;17.70;77.30
7218;DHT22;3650;53.580;10.094;2023-08-08T14:00:11;17.70;79.10
7218;DHT22;3650;53.580;10.094;2023-08-08T14:02:38;17.70;77.00
7218;DHT22;3650;53.580;10.094;2023-08-08T14:05:05;17.60;76.00
7218;DHT22;3650;53.580;10.094;2023-08-08T14:07:33;17.60;74.90
7218;DHT22;3650;53.580;10.094;2023-08-08T14:10:00;17.50;73.20
7218;DHT22;3650;53.580;10.094;2023-08-08T14:12:28;17.50;73.10
7218;DHT22;3650;53.580;10.094;2023-08-08T14:14:56;17.30;72.00
7218;DHT22;3650;53.580;10.094;2023-08-08T14:17:23;17.40;72.20
7218;DHT22;3650;53.580;10.094;2023-08-08T14:19:50;17.30;72.90
7218;DHT22;3650;53.580;10.094;2023-08-08T14:22:17;17.30;73.90
7218;DHT22;3650;53.580;10.094;2023-08-08T14:24:43;17.30;75.50
7218;DHT22;3650;53.580;10.094;2023-08-08T14:27:10;17.20;75.10
7218;DHT22;3650;53.580;10.094;2023-08-08T14:29:37;17.20;76.40
7218;DHT22;3650;53.580;10.094;2023-08-08T14:32:06;17.20;77.30
7218;DHT22;3650;53.580;10.094;2023-08-08T14:34:33;17.20;77.60
7218;DHT22;3650;53.580;10.094;2023-08-08T14:37:02;17.30;78.50
7218;DHT22;3650;53.580;10.094;2023-08-08T14:39:29;17.20;79.20
7218;DHT22;3650;53.580;10.094;2023-08-08T14:41:56;17.20;78.50
7218;DHT22;3650;53.580;10.094;2023-08-08T14:44:23;17.20;78.90
7218;DHT22;3650;53.580;10.094;2023-08-08T14:46:50;17.20;78.20
7218;DHT22;3650;53.580;10.094;2023-08-08T14:49:18;17.20;78.50
7218;DHT22;3650;53.580;10.094;2023-08-08T14:51:45;17.20;78.60
7218;DHT22;3650;53.580;10.094;2023-08-08T14:54:12;17.30;76.90
7218;DHT22;3650;53.580;10.094;2023-08-08T14:56:39;17.30;75.10
7218;DHT22;3650;53.580;10.094;2023-08-08T14:59:06;17.30;72.30
7218;DHT22;3650;53.580;10.094;2023-08-08T15:01:33;17.30;72.10
7218;DHT22;3650;53.580;10.094;2023-08-08T15:03:59;17.30;72.70
7218;DHT22;3650;53.580;10.094;2023-08-08T15:06:28;17.30;71.80
7218;DHT22;3650;53.580;10.094;2023-08-08T15:08:54;17.30;70.30
7218;DHT22;3650;53.580;10.094;2023-08-08T15:11:21;17.30;70.10
7218;DHT22;3650;53.580;10.094;2023-08-08T15:13:48;17.30;69.30
7218;DHT22;3650;53.580;10.094;2023-08-08T15:16:16;17.30;68.20
7218;DHT22;3650;53.580;10.094;2023-08-08T15:18:43;17.40;66.30
7218;DHT22;3650;53.580;10.094;2023-08-08T15:21:09;17.30;65.90
7218;DHT22;3650;53.580;10.094;2023-08-08T15:23:39;17.30;64.90
7218;DHT22;3650;53.580;10.094;2023-08-08T15:26:07;17.30;64.40
7218;DHT22;3650;53.580;10.094;2023-08-08T15:28:34;17.30;65.60
7218;DHT22;3650;53.580;10.094;2023-08-08T15:31:01;17.30;65.70
7218;DHT22;3650;53.580;10.094;2023-08-08T15:33:27;17.20;65.30
7218;DHT22;3650;53.580;10.094;2023-08-08T15:35:54;17.10;65.40
7218;DHT22;3650;53.580;10.094;2023-08-08T15:38:21;17.10;65.80
7218;DHT22;3650;53.580;10.094;2023-08-08T15:40:50;17.00;67.90
7218;DHT22;3650;53.580;10.094;2023-08-08T15:43:16;17.00;69.90
7218;DHT22;3650;53.580;10.094;2023-08-08T15:45:45;16.90;71.70